createdAt,value
2017-06-22T00:00:53.559Z,56.46
2017-06-22T00:01:53.911Z,56.43
2017-06-22T00:02:53.930Z,56.26
2017-06-22T00:03:53.962Z,56.16
2017-06-22T00:04:54.290Z,56.26
2017-06-22T00:05:54.028Z,56.33
2017-06-22T00:06:54.061Z,56.14
2017-06-22T00:07:54.085Z,56.14
2017-06-22T00:08:54.267Z,56.43
2017-06-22T00:09:54.398Z,56.26
2017-06-22T00:10:54.188Z,56.33
2017-06-22T00:11:53.902Z,56.36
2017-06-22T00:12:53.938Z,56.36
2017-06-22T00:13:54.279Z,56.23
2017-06-22T00:14:54.609Z,56.33
2017-06-22T00:15:54.337Z,56.36
2017-06-22T00:16:54.366Z,56.26
2017-06-22T00:17:54.407Z,56.33
2017-06-22T00:18:54.422Z,56.23
2017-06-22T00:19:54.141Z,56.23
2017-06-22T00:20:54.484Z,56.23
2017-06-22T00:21:54.513Z,56.43
2017-06-22T00:22:54.235Z,55.85
2017-06-22T00:23:54.266Z,55.94
2017-06-22T00:24:54.608Z,56.14
2017-06-22T00:25:54.645Z,56.23
2017-06-22T00:26:54.368Z,56.23
2017-06-22T00:27:54.702Z,55.75
2017-06-22T00:28:54.734Z,56.43
2017-06-22T00:29:54.453Z,55.85
2017-06-22T00:30:54.492Z,56.33
2017-06-22T00:31:54.833Z,56.23
2017-06-22T00:32:54.551Z,56.23
2017-06-22T00:33:54.900Z,56.04
2017-06-22T00:34:54.924Z,55.94
2017-06-22T00:35:54.956Z,55.94
2017-06-22T00:36:54.677Z,55.85
2017-06-22T00:37:55.018Z,56.04
2017-06-22T00:38:55.048Z,56.14
2017-06-22T00:39:55.085Z,55.85
2017-06-22T00:40:55.109Z,56.04
2017-06-22T00:41:55.142Z,56.04
2017-06-22T00:42:55.166Z,55.94
2017-06-22T00:43:55.192Z,55.94
2017-06-22T00:44:55.238Z,56.14
2017-06-22T00:45:55.266Z,56.04
2017-06-22T00:46:55.298Z,56.04
2017-06-22T00:47:55.323Z,56.14
2017-06-22T00:48:55.352Z,55.75
2017-06-22T00:49:55.392Z,55.75
2017-06-22T00:50:55.417Z,55.85
2017-06-22T00:51:55.462Z,56.14
2017-06-22T00:52:55.478Z,55.85
2017-06-22T00:53:55.513Z,56.14
2017-06-22T00:54:55.536Z,55.94
2017-06-22T00:55:55.263Z,55.85
2017-06-22T00:56:55.638Z,55.85
2017-06-22T00:57:55.319Z,55.75
2017-06-22T00:58:55.665Z,55.75
2017-06-22T00:59:55.695Z,55.55
2017-06-22T01:00:55.734Z,55.36
2017-06-22T01:01:55.762Z,55.65
2017-06-22T01:02:55.788Z,55.55
2017-06-22T01:03:55.816Z,55.46
2017-06-22T01:04:55.849Z,55.65
2017-06-22T01:05:55.883Z,56.14
2017-06-22T01:06:55.599Z,55.75
2017-06-22T01:07:55.948Z,55.85
2017-06-22T01:08:55.977Z,55.65
2017-06-22T01:09:56.003Z,55.75
2017-06-22T01:10:56.035Z,55.65
2017-06-22T01:11:55.759Z,55.55
2017-06-22T01:12:56.099Z,55.65
2017-06-22T01:13:56.133Z,55.85
2017-06-22T01:14:56.161Z,55.46
2017-06-22T01:15:56.444Z,55.46
2017-06-22T01:16:56.224Z,55.36
2017-06-22T01:17:56.244Z,55.55
2017-06-22T01:18:56.287Z,55.46
2017-06-22T01:19:56.322Z,55.55
2017-06-22T01:20:56.638Z,55.55
2017-06-22T01:21:56.064Z,55.46
2017-06-22T01:22:56.095Z,55.46
2017-06-22T01:23:56.434Z,55.55
2017-06-22T01:24:56.469Z,55.65
2017-06-22T01:25:56.795Z,55.46
2017-06-22T01:26:56.523Z,56.04
2017-06-22T01:27:56.556Z,55.85
2017-06-22T01:28:56.593Z,55.85
2017-06-22T01:29:56.311Z,55.75
2017-06-22T01:30:56.951Z,55.75
2017-06-22T01:31:56.688Z,55.46
2017-06-22T01:32:56.401Z,56.04
2017-06-22T01:33:56.746Z,55.46
2017-06-22T01:34:56.466Z,55.94
2017-06-22T01:35:57.111Z,56.04
2017-06-22T01:36:56.837Z,55.55
2017-06-22T01:37:56.869Z,55.26
2017-06-22T01:38:56.897Z,55.85
2017-06-22T01:39:56.923Z,55.55
2017-06-22T01:40:57.258Z,55.62
2017-06-22T01:41:56.997Z,56.04
2017-06-22T01:42:56.709Z,55.82
2017-06-22T01:43:57.050Z,56.04
2017-06-22T01:44:57.083Z,55.72
2017-06-22T01:45:57.364Z,56.14
2017-06-22T01:46:57.149Z,55.94
2017-06-22T01:47:57.173Z,55.94
2017-06-22T01:48:56.895Z,55.75
2017-06-22T01:49:56.927Z,55.75
2017-06-22T01:50:57.523Z,55.75
2017-06-22T01:51:57.294Z,55.65
2017-06-22T01:52:57.325Z,55.55
2017-06-22T01:53:57.355Z,55.55
2017-06-22T01:54:57.388Z,55.55
2017-06-22T01:55:57.720Z,55.65
2017-06-22T01:56:57.453Z,55.26
2017-06-22T01:57:57.485Z,55.36
2017-06-22T01:58:57.202Z,55.52
2017-06-22T01:59:57.544Z,55.46
2017-06-22T02:00:57.268Z,55.43
2017-06-22T02:01:57.602Z,55.75
2017-06-22T02:02:57.647Z,55.46
2017-06-22T02:03:57.669Z,55.75
2017-06-22T02:04:57.700Z,55.65
2017-06-22T02:05:57.733Z,55.65
2017-06-22T02:06:57.759Z,55.46
2017-06-22T02:07:57.806Z,55.36
2017-06-22T02:08:57.823Z,55.62
2017-06-22T02:09:57.857Z,55.55
2017-06-22T02:10:57.565Z,55.16
2017-06-22T02:11:57.913Z,55.46
2017-06-22T02:12:57.942Z,55.43
2017-06-22T02:13:57.980Z,55.36
2017-06-22T02:14:57.996Z,55.46
2017-06-22T02:15:58.045Z,55.16
2017-06-22T02:16:58.066Z,55.26
2017-06-22T02:17:57.786Z,55.07
2017-06-22T02:18:58.123Z,54.94
2017-06-22T02:19:57.853Z,55.36
2017-06-22T02:20:57.881Z,55.26
2017-06-22T02:21:58.214Z,55.52
2017-06-22T02:22:58.253Z,55.23
2017-06-22T02:23:58.280Z,55.46
2017-06-22T02:24:58.315Z,55.26
2017-06-22T02:25:58.344Z,55.46
2017-06-22T02:26:58.373Z,55.55
2017-06-22T02:27:58.400Z,55.33
2017-06-22T02:28:58.434Z,55.26
2017-06-22T02:29:58.469Z,55.55
2017-06-22T02:30:58.189Z,55.46
2017-06-22T02:31:58.521Z,55.55
2017-06-22T02:32:58.563Z,55.23
2017-06-22T02:33:58.286Z,55.26
2017-06-22T02:34:58.629Z,54.94
2017-06-22T02:35:58.650Z,55.26
2017-06-22T02:36:58.682Z,55.23
2017-06-22T02:37:58.703Z,55.43
2017-06-22T02:38:58.744Z,55.36
2017-06-22T02:39:58.773Z,55.26
2017-06-22T02:40:58.486Z,55.04
2017-06-22T02:41:58.831Z,55.16
2017-06-22T02:42:58.868Z,55.13
2017-06-22T02:43:58.900Z,54.58
2017-06-22T02:44:58.615Z,55.13
2017-06-22T02:45:58.642Z,54.75
2017-06-22T02:46:58.986Z,55.13
2017-06-22T02:47:58.706Z,54.77
2017-06-22T02:48:59.049Z,54.94
2017-06-22T02:49:59.074Z,54.97
2017-06-22T02:50:58.798Z,54.75
2017-06-22T02:51:59.140Z,54.75
2017-06-22T02:52:59.172Z,54.85
2017-06-22T02:53:59.200Z,55.16
2017-06-22T02:54:58.921Z,55.04
2017-06-22T02:55:59.271Z,55.16
2017-06-22T02:56:59.299Z,55.16
2017-06-22T02:57:59.325Z,54.97
2017-06-22T02:58:59.038Z,54.87
2017-06-22T02:59:59.389Z,55.04
2017-06-22T03:00:59.414Z,54.85
2017-06-22T03:01:59.451Z,55.04
2017-06-22T03:02:59.163Z,54.94
2017-06-22T03:03:59.514Z,55.13
2017-06-22T03:04:59.226Z,54.85
2017-06-22T03:05:59.571Z,55.04
2017-06-22T03:06:59.609Z,54.94
2017-06-22T03:07:59.320Z,54.94
2017-06-22T03:08:59.661Z,55.04
2017-06-22T03:09:59.699Z,54.94
2017-06-22T03:10:59.411Z,55.04
2017-06-22T03:11:59.758Z,55.04
2017-06-22T03:12:59.784Z,55.13
2017-06-22T03:13:59.502Z,54.65
2017-06-22T03:14:59.539Z,55.33
2017-06-22T03:15:59.873Z,54.65
2017-06-22T03:16:59.909Z,54.46
2017-06-22T03:17:59.938Z,54.55
2017-06-22T03:18:59.970Z,54.46
2017-06-22T03:20:00.004Z,54.36
2017-06-22T03:21:00.027Z,54.36
2017-06-22T03:22:00.061Z,54.85
2017-06-22T03:22:59.777Z,54.36
2017-06-22T03:24:00.127Z,54.36
2017-06-22T03:25:00.158Z,54.36
2017-06-22T03:26:00.188Z,54.36
2017-06-22T03:27:00.517Z,54.55
2017-06-22T03:28:00.248Z,54.75
2017-06-22T03:29:00.270Z,54.94
2017-06-22T03:30:00.306Z,54.94
2017-06-22T03:31:00.341Z,54.65
2017-06-22T03:32:00.673Z,54.85
2017-06-22T03:33:00.397Z,54.85
2017-06-22T03:34:00.426Z,54.55
2017-06-22T03:35:00.459Z,54.75
2017-06-22T03:36:00.491Z,55.13
2017-06-22T03:37:00.818Z,54.46
2017-06-22T03:38:00.546Z,54.65
2017-06-22T03:39:00.267Z,54.55
2017-06-22T03:40:00.618Z,54.46
2017-06-22T03:41:00.649Z,54.94
2017-06-22T03:42:00.925Z,54.46
2017-06-22T03:43:00.710Z,54.46
2017-06-22T03:44:00.739Z,54.46
2017-06-22T03:45:00.763Z,54.85
2017-06-22T03:46:00.480Z,54.85
2017-06-22T03:47:01.138Z,55.13
2017-06-22T03:48:00.862Z,54.55
2017-06-22T03:49:00.891Z,54.26
2017-06-22T03:50:00.918Z,54.55
2017-06-22T03:51:00.944Z,54.55
2017-06-22T03:52:00.917Z,54.55
2017-06-22T03:53:01.026Z,54.55
2017-06-22T03:54:01.047Z,54.36
2017-06-22T03:55:01.073Z,54.46
2017-06-22T03:56:01.105Z,54.46
2017-06-22T03:57:01.388Z,54.55
2017-06-22T03:58:01.167Z,54.46
2017-06-22T03:59:01.192Z,54.55
2017-06-22T04:00:01.222Z,54.55
2017-06-22T04:01:01.252Z,54.46
2017-06-22T04:02:01.589Z,54.36
2017-06-22T04:03:01.307Z,54.55
2017-06-22T04:04:01.346Z,54.26
2017-06-22T04:05:01.372Z,54.26
2017-06-22T04:06:01.405Z,54.16
2017-06-22T04:07:01.693Z,54.16
2017-06-22T04:08:01.152Z,54.16
2017-06-22T04:09:01.504Z,54.55
2017-06-22T04:10:01.533Z,54.46
2017-06-22T04:11:01.562Z,54.36
2017-06-22T04:12:01.583Z,54.36
2017-06-22T04:13:01.628Z,54.26
2017-06-22T04:14:01.345Z,54.26
2017-06-22T04:15:01.686Z,54.36
2017-06-22T04:16:01.401Z,54.16
2017-06-22T04:17:01.746Z,54.36
2017-06-22T04:18:01.463Z,54.16
2017-06-22T04:19:01.800Z,54.16
2017-06-22T04:20:01.838Z,54.16
2017-06-22T04:21:01.855Z,54.36
2017-06-22T04:22:01.897Z,54.36
2017-06-22T04:23:01.626Z,54.36
2017-06-22T04:24:01.958Z,54.36
2017-06-22T04:25:01.983Z,54.36
2017-06-22T04:26:02.046Z,54.46
2017-06-22T04:27:01.739Z,54.36
2017-06-22T04:28:02.080Z,54.36
2017-06-22T04:29:02.115Z,54.36
2017-06-22T04:30:02.141Z,54.55
2017-06-22T04:31:02.177Z,54.46
2017-06-22T04:32:01.891Z,54.16
2017-06-22T04:33:02.232Z,54.46
2017-06-22T04:34:01.959Z,54.55
2017-06-22T04:35:02.294Z,54.36
2017-06-22T04:36:02.343Z,54.65
2017-06-22T04:37:02.379Z,54.36
2017-06-22T04:38:02.116Z,54.46
2017-06-22T04:39:02.417Z,54.55
2017-06-22T04:40:02.450Z,54.55
2017-06-22T04:41:02.483Z,54.36
2017-06-22T04:42:02.512Z,54.55
2017-06-22T04:43:02.544Z,54.36
2017-06-22T04:44:02.573Z,54.55
2017-06-22T04:45:02.291Z,54.36
2017-06-22T04:46:02.631Z,54.36
2017-06-22T04:47:02.657Z,54.55
2017-06-22T04:48:02.377Z,54.26
2017-06-22T04:49:02.402Z,54.55
2017-06-22T04:50:02.759Z,54.16
2017-06-22T04:51:02.783Z,54.55
2017-06-22T04:52:02.508Z,54.55
2017-06-22T04:53:02.847Z,54.55
2017-06-22T04:54:02.881Z,54.26
2017-06-22T04:55:02.905Z,54.26
2017-06-22T04:56:02.932Z,54.46
2017-06-22T04:57:02.975Z,54.55
2017-06-22T04:58:02.998Z,54.16
2017-06-22T04:59:03.030Z,54.55
2017-06-22T05:00:03.056Z,54.55
2017-06-22T05:01:03.082Z,54.46
2017-06-22T05:02:03.116Z,54.46
2017-06-22T05:03:03.144Z,54.46
2017-06-22T05:04:03.187Z,54.55
2017-06-22T05:05:03.214Z,54.36
2017-06-22T05:06:03.248Z,54.36
2017-06-22T05:07:03.272Z,54.16
2017-06-22T05:08:02.992Z,54.36
2017-06-22T05:09:03.027Z,54.36
2017-06-22T05:10:03.355Z,54.26
2017-06-22T05:11:03.391Z,54.26
2017-06-22T05:12:03.420Z,54.36
2017-06-22T05:13:03.457Z,54.36
2017-06-22T05:14:03.486Z,54.26
2017-06-22T05:15:03.518Z,54.36
2017-06-22T05:16:03.544Z,54.06
2017-06-22T05:17:03.581Z,54.55
2017-06-22T05:18:03.605Z,54.16
2017-06-22T05:19:03.642Z,54.06
2017-06-22T05:20:03.675Z,53.87
2017-06-22T05:21:03.702Z,53.97
2017-06-22T05:22:03.728Z,54.06
2017-06-22T05:23:03.760Z,54.06
2017-06-22T05:24:03.794Z,54.06
2017-06-22T05:25:03.827Z,54.06
2017-06-22T05:26:03.856Z,53.87
2017-06-22T05:27:03.893Z,54.06
2017-06-22T05:28:03.915Z,54.06
2017-06-22T05:29:03.947Z,54.06
2017-06-22T05:30:03.971Z,54.16
2017-06-22T05:31:04.009Z,53.97
2017-06-22T05:32:04.036Z,53.87
2017-06-22T05:33:04.065Z,53.97
2017-06-22T05:34:04.107Z,54.06
2017-06-22T05:35:04.123Z,54.06
2017-06-22T05:36:04.157Z,53.97
2017-06-22T05:37:04.189Z,53.97
2017-06-22T05:38:04.218Z,53.97
2017-06-22T05:39:04.255Z,53.99
2017-06-22T05:40:04.284Z,54.06
2017-06-22T05:41:04.312Z,53.97
2017-06-22T05:42:04.031Z,54.06
2017-06-22T05:43:04.645Z,54.26
2017-06-22T05:44:04.398Z,54.19
2017-06-22T05:45:04.114Z,54.19
2017-06-22T05:46:04.504Z,54.38
2017-06-22T05:47:04.500Z,54.16
2017-06-22T05:48:04.467Z,53.87
2017-06-22T05:49:04.576Z,54.36
2017-06-22T05:50:04.584Z,54.36
2017-06-22T05:51:04.638Z,54.26
2017-06-22T05:52:04.651Z,54.19
2017-06-22T05:53:04.938Z,53.87
2017-06-22T05:54:04.707Z,53.99
2017-06-22T05:55:04.432Z,54.28
2017-06-22T05:56:04.798Z,54.28
2017-06-22T05:57:04.803Z,53.31
2017-06-22T05:58:05.087Z,53.38
2017-06-22T05:59:04.552Z,53.58
2017-06-22T06:00:04.885Z,53.58
2017-06-22T06:01:04.939Z,53.67
2017-06-22T06:02:04.956Z,53.5
2017-06-22T06:03:04.932Z,53.48
2017-06-22T06:04:05.019Z,53.41
2017-06-22T06:05:05.053Z,53.41
2017-06-22T06:06:05.080Z,53.6
2017-06-22T06:07:04.795Z,53.48
2017-06-22T06:08:05.434Z,53.7
2017-06-22T06:09:05.160Z,53.5
2017-06-22T06:10:05.200Z,53.5
2017-06-22T06:11:05.225Z,53.6
2017-06-22T06:12:04.953Z,53.5
2017-06-22T06:13:05.537Z,53.5
2017-06-22T06:14:05.005Z,53.7
2017-06-22T06:15:05.351Z,53.5
2017-06-22T06:16:05.376Z,53.77
2017-06-22T06:17:05.419Z,53.5
2017-06-22T06:18:05.738Z,53.7
2017-06-22T06:19:05.479Z,53.8
2017-06-22T06:20:05.504Z,53.5
2017-06-22T06:21:05.539Z,53.8
2017-06-22T06:22:05.558Z,53.7
2017-06-22T06:23:05.601Z,53.31
2017-06-22T06:24:05.628Z,53.8
2017-06-22T06:25:05.648Z,53.8
2017-06-22T06:26:05.694Z,53.89
2017-06-22T06:27:05.719Z,53.8
2017-06-22T06:28:05.441Z,53.6
2017-06-22T06:29:05.465Z,53.6
2017-06-22T06:30:05.506Z,53.6
2017-06-22T06:31:05.842Z,53.89
2017-06-22T06:32:05.874Z,53.6
2017-06-22T06:33:05.895Z,53.7
2017-06-22T06:34:05.625Z,53.89
2017-06-22T06:35:05.657Z,53.8
2017-06-22T06:36:05.993Z,53.89
2017-06-22T06:37:06.031Z,53.6
2017-06-22T06:38:06.061Z,53.7
2017-06-22T06:39:06.093Z,53.6
2017-06-22T06:40:06.126Z,53.7
2017-06-22T06:41:06.150Z,53.89
2017-06-22T06:42:06.175Z,53.31
2017-06-22T06:43:06.217Z,53.89
2017-06-22T06:44:06.241Z,53.89
2017-06-22T06:45:06.287Z,53.41
2017-06-22T06:46:06.298Z,53.89
2017-06-22T06:47:06.319Z,53.31
2017-06-22T06:48:06.368Z,53.7
2017-06-22T06:49:06.393Z,53.89
2017-06-22T06:50:06.119Z,53.8
2017-06-22T06:51:06.137Z,53.6
2017-06-22T06:52:06.176Z,53.6
2017-06-22T06:53:06.521Z,53.7
2017-06-22T06:54:06.553Z,53.6
2017-06-22T06:55:06.270Z,53.7
2017-06-22T06:56:06.611Z,53.7
2017-06-22T06:57:06.644Z,53.41
2017-06-22T06:58:06.677Z,53.5
2017-06-22T06:59:06.385Z,53.6
2017-06-22T07:00:06.424Z,53.6
2017-06-22T07:01:06.767Z,53.8
2017-06-22T07:02:06.791Z,53.63
2017-06-22T07:03:06.829Z,53.6
2017-06-22T07:04:06.853Z,53.5
2017-06-22T07:05:06.883Z,53.6
2017-06-22T07:06:06.919Z,53.6
2017-06-22T07:07:06.636Z,53.7
2017-06-22T07:08:06.978Z,53.73
2017-06-22T07:09:07.013Z,53.83
2017-06-22T07:10:07.038Z,53.53
2017-06-22T07:11:07.076Z,53.73
2017-06-22T07:12:07.092Z,53.7
2017-06-22T07:13:06.822Z,53.7
2017-06-22T07:14:07.161Z,53.63
2017-06-22T07:15:07.198Z,53.41
2017-06-22T07:16:07.220Z,53.83
2017-06-22T07:17:07.261Z,54.02
2017-06-22T07:18:07.279Z,54.31
2017-06-22T07:19:07.326Z,53.44
2017-06-22T07:20:07.350Z,53.63
2017-06-22T07:21:07.380Z,53.83
2017-06-22T07:22:07.412Z,54.5
2017-06-22T07:23:07.443Z,54.21
2017-06-22T07:24:07.477Z,54.31
2017-06-22T07:25:07.281Z,54.02
2017-06-22T07:26:07.536Z,53.34
2017-06-22T07:27:07.574Z,54.11
2017-06-22T07:28:07.598Z,53.63
2017-06-22T07:29:07.314Z,54.41
2017-06-22T07:30:07.655Z,53.63
2017-06-22T07:31:07.692Z,54.02
2017-06-22T07:32:07.716Z,53.83
2017-06-22T07:33:07.748Z,54.21
2017-06-22T07:34:07.778Z,54.41
2017-06-22T07:35:07.808Z,53.63
2017-06-22T07:36:07.533Z,53.53
2017-06-22T07:37:07.565Z,54.41
2017-06-22T07:38:07.591Z,53.34
2017-06-22T07:39:07.939Z,53.63
2017-06-22T07:40:07.976Z,53.53
2017-06-22T07:41:07.684Z,54.31
2017-06-22T07:42:08.033Z,53.73
2017-06-22T07:43:08.053Z,54.31
2017-06-22T07:44:07.783Z,53.63
2017-06-22T07:45:08.127Z,53.24
2017-06-22T07:46:08.149Z,53.53
2017-06-22T07:47:08.186Z,53.24
2017-06-22T07:48:07.906Z,52.66
2017-06-22T07:49:08.502Z,53.44
2017-06-22T07:50:08.281Z,53.05
2017-06-22T07:51:08.306Z,52.75
2017-06-22T07:52:08.341Z,52.95
2017-06-22T07:53:08.061Z,52.75
2017-06-22T07:54:08.655Z,52.95
2017-06-22T07:55:08.426Z,52.97
2017-06-22T07:56:08.457Z,52.87
2017-06-22T07:57:08.494Z,52.75
2017-06-22T07:58:08.521Z,52.95
2017-06-22T07:59:08.852Z,52.85
2017-06-22T08:00:08.273Z,52.97
2017-06-22T08:01:08.609Z,52.75
2017-06-22T08:02:08.341Z,52.68
2017-06-22T08:03:08.366Z,52.87
2017-06-22T08:04:08.963Z,52.75
2017-06-22T08:05:08.745Z,52.36
2017-06-22T08:06:08.773Z,52.56
2017-06-22T08:07:08.802Z,52.95
2017-06-22T08:08:08.835Z,52.36
2017-06-22T08:09:09.160Z,52.29
2017-06-22T08:10:08.900Z,52.09
2017-06-22T08:11:08.926Z,52.39
2017-06-22T08:12:08.952Z,52.29
2017-06-22T08:13:08.982Z,52.19
2017-06-22T08:14:09.323Z,52.26
2017-06-22T08:15:09.051Z,52.29
2017-06-22T08:16:08.766Z,52.29
2017-06-22T08:17:09.098Z,52.48
2017-06-22T08:18:08.834Z,52.68
2017-06-22T08:19:09.422Z,52.19
2017-06-22T08:20:09.208Z,52.48
2017-06-22T08:21:09.233Z,52.29
2017-06-22T08:22:09.270Z,52.48
2017-06-22T08:23:09.301Z,52.09
2017-06-22T08:24:09.625Z,52.87
2017-06-22T08:25:09.365Z,52.48
2017-06-22T08:26:09.074Z,52.48
2017-06-22T08:27:09.425Z,52
2017-06-22T08:28:09.141Z,52.29
2017-06-22T08:29:09.484Z,52.48
2017-06-22T08:30:09.514Z,52.29
2017-06-22T08:31:09.235Z,52.48
2017-06-22T08:32:09.262Z,52.39
2017-06-22T08:33:09.607Z,52.19
2017-06-22T08:34:09.633Z,52.48
2017-06-22T08:35:09.671Z,52.39
2017-06-22T08:36:09.703Z,52.48
2017-06-22T08:37:09.734Z,52.39
2017-06-22T08:38:09.455Z,52.68
2017-06-22T08:39:09.803Z,52.68
2017-06-22T08:40:09.835Z,52.19
2017-06-22T08:41:09.851Z,52.39
2017-06-22T08:42:09.575Z,52.39
2017-06-22T08:43:09.925Z,52.68
2017-06-22T08:44:09.945Z,52.29
2017-06-22T08:45:09.983Z,52.39
2017-06-22T08:46:10.011Z,52.29
2017-06-22T08:47:09.731Z,52.19
2017-06-22T08:48:09.793Z,52.29
2017-06-22T08:49:10.106Z,52.39
2017-06-22T08:50:10.134Z,52.68
2017-06-22T08:51:10.160Z,52.09
2017-06-22T08:52:10.199Z,52.39
2017-06-22T08:53:10.235Z,52.29
2017-06-22T08:54:09.954Z,52.19
2017-06-22T08:55:10.291Z,52.39
2017-06-22T08:56:10.320Z,52.29
2017-06-22T08:57:10.359Z,52.68
2017-06-22T08:58:10.383Z,52.39
2017-06-22T08:59:10.413Z,52.39
2017-06-22T09:00:10.440Z,52.29
2017-06-22T09:01:10.484Z,52.19
2017-06-22T09:02:10.510Z,52.29
2017-06-22T09:03:10.542Z,52.41
2017-06-22T09:04:10.574Z,52.19
2017-06-22T09:05:10.607Z,52.39
2017-06-22T09:06:10.324Z,52.58
2017-06-22T09:07:10.663Z,52.09
2017-06-22T09:08:10.694Z,52.39
2017-06-22T09:09:10.726Z,52.29
2017-06-22T09:10:10.763Z,52.29
2017-06-22T09:11:10.801Z,52.68
2017-06-22T09:12:10.825Z,52.58
2017-06-22T09:13:10.851Z,52.51
2017-06-22T09:14:10.881Z,52.51
2017-06-22T09:15:10.916Z,52.48
2017-06-22T09:16:10.953Z,52.31
2017-06-22T09:17:10.988Z,52.68
2017-06-22T09:18:11.014Z,52.39
2017-06-22T09:19:11.055Z,52.31
2017-06-22T09:20:11.072Z,52.39
2017-06-22T09:21:10.796Z,52.29
2017-06-22T09:22:10.834Z,52.02
2017-06-22T09:23:11.171Z,52
2017-06-22T09:24:11.197Z,52.29
2017-06-22T09:25:11.473Z,52.31
2017-06-22T09:26:11.265Z,52.09
2017-06-22T09:27:11.294Z,52.19
2017-06-22T09:28:11.318Z,52.31
2017-06-22T09:29:11.354Z,52.29
2017-06-22T09:30:11.324Z,52.31
2017-06-22T09:31:11.416Z,52.31
2017-06-22T09:32:11.141Z,52.31
2017-06-22T09:33:11.166Z,52.12
2017-06-22T09:34:11.511Z,52.31
2017-06-22T09:35:11.480Z,52.22
2017-06-22T09:36:11.571Z,52.31
2017-06-22T09:37:11.598Z,52.22
2017-06-22T09:38:11.635Z,52.31
2017-06-22T09:39:11.672Z,52.31
2017-06-22T09:40:11.944Z,52.22
2017-06-22T09:41:11.413Z,52.22
2017-06-22T09:42:11.452Z,52.41
2017-06-22T09:43:11.786Z,52.41
2017-06-22T09:44:11.507Z,51.82
2017-06-22T09:45:11.849Z,52.22
2017-06-22T09:46:11.573Z,52.12
2017-06-22T09:47:11.928Z,52.02
2017-06-22T09:48:11.947Z,52.02
2017-06-22T09:49:11.976Z,52.02
2017-06-22T09:50:12.001Z,52.41
2017-06-22T09:51:12.042Z,52.41
2017-06-22T09:52:11.764Z,52.7
2017-06-22T09:53:12.107Z,52.02
2017-06-22T09:54:12.132Z,52.12
2017-06-22T09:55:12.424Z,52.22
2017-06-22T09:56:12.201Z,52.02
2017-06-22T09:57:12.235Z,51.73
2017-06-22T09:58:12.263Z,51.92
2017-06-22T09:59:12.296Z,52.12
2017-06-22T10:00:12.621Z,51.82
2017-06-22T10:01:12.362Z,52.02
2017-06-22T10:02:12.391Z,52.12
2017-06-22T10:03:12.418Z,52.22
2017-06-22T10:04:12.449Z,52.02
2017-06-22T10:05:12.489Z,52.05
2017-06-22T10:06:12.201Z,51.82
2017-06-22T10:07:12.541Z,51.63
2017-06-22T10:08:12.579Z,52.31
2017-06-22T10:09:12.613Z,51.82
2017-06-22T10:10:12.645Z,51.82
2017-06-22T10:11:12.671Z,51.82
2017-06-22T10:12:12.701Z,51.76
2017-06-22T10:13:12.736Z,51.73
2017-06-22T10:14:12.760Z,51.95
2017-06-22T10:15:12.797Z,51.82
2017-06-22T10:16:12.834Z,51.92
2017-06-22T10:17:12.887Z,51.86
2017-06-22T10:18:12.579Z,51.76
2017-06-22T10:19:12.606Z,52.02
2017-06-22T10:20:12.963Z,51.92
2017-06-22T10:21:12.983Z,51.76
2017-06-22T10:22:13.021Z,51.76
2017-06-22T10:23:13.057Z,52.05
2017-06-22T10:24:13.084Z,51.73
2017-06-22T10:25:13.113Z,52.12
2017-06-22T10:26:13.146Z,51.53
2017-06-22T10:27:12.863Z,51.37
2017-06-22T10:28:13.199Z,51.17
2017-06-22T10:29:13.241Z,51.66
2017-06-22T10:30:13.273Z,51.34
2017-06-22T10:31:13.302Z,51.66
2017-06-22T10:32:13.322Z,51.37
2017-06-22T10:33:13.371Z,51.46
2017-06-22T10:34:13.461Z,51.56
2017-06-22T10:35:13.428Z,51.76
2017-06-22T10:36:13.467Z,51.46
2017-06-22T10:37:13.176Z,51.56
2017-06-22T10:38:13.521Z,51.66
2017-06-22T10:39:13.552Z,51.56
2017-06-22T10:40:13.591Z,51.95
2017-06-22T10:41:13.619Z,50.88
2017-06-22T10:42:13.643Z,51.73
2017-06-22T10:43:13.377Z,51.66
2017-06-22T10:44:13.709Z,51.76
2017-06-22T10:45:13.434Z,51.66
2017-06-22T10:46:13.783Z,51.37
2017-06-22T10:47:13.812Z,50.78
2017-06-22T10:48:13.840Z,50.78
2017-06-22T10:49:13.874Z,51.17
2017-06-22T10:50:13.589Z,51.17
2017-06-22T10:51:13.943Z,50.98
2017-06-22T10:52:13.968Z,51.27
2017-06-22T10:53:14.005Z,50.98
2017-06-22T10:54:13.722Z,50.98
2017-06-22T10:55:14.066Z,50.98
2017-06-22T10:56:13.787Z,51.95
2017-06-22T10:57:14.123Z,51.56
2017-06-22T10:58:13.845Z,50.78
2017-06-22T10:59:14.190Z,50.98
2017-06-22T11:00:14.218Z,50.78
2017-06-22T11:01:14.255Z,50.78
2017-06-22T11:02:14.288Z,50.78
2017-06-22T11:03:14.319Z,50.88
2017-06-22T11:04:14.349Z,51.17
2017-06-22T11:05:14.385Z,51.17
2017-06-22T11:06:14.351Z,50.88
2017-06-22T11:07:14.128Z,50.88
2017-06-22T11:08:14.473Z,50.98
2017-06-22T11:09:14.515Z,50.98
2017-06-22T11:10:14.543Z,50.68
2017-06-22T11:11:14.871Z,50.68
2017-06-22T11:12:14.605Z,50.68
2017-06-22T11:13:14.646Z,50.61
2017-06-22T11:14:14.669Z,50.29
2017-06-22T11:15:14.702Z,50.68
2017-06-22T11:16:14.670Z,50.49
2017-06-22T11:17:14.769Z,50.61
2017-06-22T11:18:14.797Z,50.59
2017-06-22T11:19:14.826Z,50.78
2017-06-22T11:20:14.858Z,50.68
2017-06-22T11:21:15.145Z,50.81
2017-06-22T11:22:14.612Z,51
2017-06-22T11:23:14.957Z,50.61
2017-06-22T11:24:14.990Z,50.81
2017-06-22T11:25:15.010Z,50.61
2017-06-22T11:26:15.288Z,50.59
2017-06-22T11:27:15.089Z,51
2017-06-22T11:28:15.118Z,50.81
2017-06-22T11:29:15.145Z,50.61
2017-06-22T11:30:15.180Z,50.81
2017-06-22T11:31:15.458Z,50.68
2017-06-22T11:32:15.232Z,50.9
2017-06-22T11:33:14.961Z,50.71
2017-06-22T11:34:14.998Z,50.68
2017-06-22T11:35:15.023Z,50.71
2017-06-22T11:36:15.620Z,50.42
2017-06-22T11:37:15.093Z,50.32
2017-06-22T11:38:15.433Z,50.32
2017-06-22T11:39:15.182Z,50.02
2017-06-22T11:40:15.490Z,50.51
2017-06-22T11:41:15.221Z,50.9
2017-06-22T11:42:15.562Z,50.9
2017-06-22T11:43:15.586Z,50.61
2017-06-22T11:44:15.623Z,51.29
2017-06-22T11:45:15.659Z,51.1
2017-06-22T11:46:15.689Z,50.71
2017-06-22T11:47:15.725Z,51.1
2017-06-22T11:48:15.750Z,51.2
2017-06-22T11:49:15.783Z,51
2017-06-22T11:50:15.815Z,51.07
2017-06-22T11:51:15.853Z,51
2017-06-22T11:52:15.884Z,50.78
2017-06-22T11:53:15.907Z,51.07
2017-06-22T11:54:15.947Z,50.98
2017-06-22T11:55:15.984Z,50.88
2017-06-22T11:56:16.016Z,50.98
2017-06-22T11:57:16.034Z,50.98
2017-06-22T11:58:16.073Z,50.88
2017-06-22T11:59:16.106Z,51.56
2017-06-22T12:00:16.139Z,51.46
2017-06-22T12:01:16.160Z,51.86
2017-06-22T12:02:16.201Z,51.56
2017-06-22T12:03:16.234Z,51.17
2017-06-22T12:04:15.950Z,51.56
2017-06-22T12:05:15.985Z,51.95
2017-06-22T12:06:16.325Z,51.66
2017-06-22T12:07:16.358Z,51.76
2017-06-22T12:08:16.390Z,51.76
2017-06-22T12:09:16.423Z,51.37
2017-06-22T12:10:16.140Z,52.34
2017-06-22T12:11:16.495Z,52.25
2017-06-22T12:12:16.198Z,52.44
2017-06-22T12:13:16.553Z,52.44
2017-06-22T12:14:16.574Z,52.83
2017-06-22T12:15:16.615Z,52.64
2017-06-22T12:16:16.649Z,53.71
2017-06-22T12:17:16.674Z,53.71
2017-06-22T12:18:16.711Z,53.91
2017-06-22T12:19:16.736Z,53.81
2017-06-22T12:20:16.772Z,53.81
2017-06-22T12:21:16.805Z,53.71
2017-06-22T12:22:16.830Z,53.61
2017-06-22T12:23:16.553Z,53.68
2017-06-22T12:24:16.588Z,54.17
2017-06-22T12:25:16.929Z,54.59
2017-06-22T12:26:16.954Z,54.3
2017-06-22T12:27:16.679Z,54.2
2017-06-22T12:28:17.028Z,54.3
2017-06-22T12:29:17.055Z,54.36
2017-06-22T12:30:17.085Z,54.2
2017-06-22T12:31:17.118Z,54
2017-06-22T12:32:17.152Z,54.46
2017-06-22T12:33:17.183Z,54.56
2017-06-22T12:34:17.216Z,54.85
2017-06-22T12:35:17.243Z,55.05
2017-06-22T12:36:17.281Z,54.95
2017-06-22T12:37:17.563Z,54.75
2017-06-22T12:38:17.339Z,55.15
2017-06-22T12:39:17.381Z,54.75
2017-06-22T12:40:17.405Z,55.15
2017-06-22T12:41:17.439Z,55.05
2017-06-22T12:42:17.715Z,55.15
2017-06-22T12:43:17.512Z,55.15
2017-06-22T12:44:17.529Z,55.05
2017-06-22T12:45:17.562Z,55.54
2017-06-22T12:46:17.277Z,55.44
2017-06-22T12:47:17.916Z,55.54
2017-06-22T12:48:18.278Z,55.9
2017-06-22T12:49:17.680Z,55.83
2017-06-22T12:50:17.712Z,55.93
2017-06-22T12:51:17.433Z,56.71
2017-06-22T12:52:18.078Z,56.48
2017-06-22T12:53:17.824Z,56.68
2017-06-22T12:54:17.843Z,56.32
2017-06-22T12:55:17.874Z,56.22
2017-06-22T12:56:17.907Z,56.41